La Carlota, Argentina
Current Conditions -  °F | °C
As of 9:00 AM on Wednesday 28 Jan 2015 (Local Time) from SAOC Reporting Station
Scattered Clouds Scattered Clouds  
Wind Chill: 19°   Ceiling: Unl
Heat Index: 19°   Visibility: 6mi
Dew Point: 16°   Wind: 9mph
Humidity: 83%   Direction: 20°NNE
Pressure: 29.8"   Gusts: NA
Location:  33.43°S, 63.3°W
Report Text: SAOC 281200Z 02008KT 9999 SCT025 FEW040CBSCT100 19/16 Q1009
Loading
Personal Weather Stations






























Interactive Weather Map New forecast layout! Learn more

10-Day Weather Forecast

Advertisements
Track Severe Weather on mobile